Bartlesville, OK (74006)

12:05 AM CST del 04 Dicembre 2016 (GMT -0600)
Woodland Park | | Change Station

Alt. 728 ft 36.74 °N, 95.94 °W | Updated 5 seconds ago

Overcast
Coperto
43.4 °F
Sembra 43 °F
N
0.0
Vento Variabile Vento da ENE
Gusts 0.7 mph

Oggi
Massima -- | Minima -- °F
--% Possibilità di precip.
Ieri
Massima -- | Minima -- °F
Precip. -- in
Pressione 30.07 in
Visibilità 3.0 miglia
Nuvole Coperto 400 ft
Raffreddamento del vento 43 °F
Punto di rugiada 40 °F
Umidità 88%
Piovosità 0.00 in
Spessore del manto nevoso Non disponibile.
7:20 AM 5:07 PM
Luna crescente, 20% visible
METAR KBVO 040553Z AUTO 08005KT 3SM BR OVC004 06/05 A3008 RMK AO2 SLP182 60004 T00610050 10078 20061 401170056 56007
Pressione 30.07 in
Visibilità 3.0 miglia
Nuvole Coperto 400 ft
Raffreddamento del vento 43 °F
Punto di rugiada 40 °F
Umidità 88%
Piovosità 0.00 in
Spessore del manto nevoso Non disponibile.
7:20 AM 5:07 PM
Luna crescente, 20% visible
METAR KBVO 040553Z AUTO 08005KT 3SM BR OVC004 06/05 A3008 RMK AO2 SLP182 60004 T00610050 10078 20061 401170056 56007

10-Day Weather Forecast

Almanac

Astronomia

Dec. 04, 2016 Alba Tramonto
Ora attuale
Crepuscolo civile
Crepuscolo nautico
Crepuscolo astronomico
Luna
Estensione della luce visibile
Lunghezza del giorno
Tomorrow will be .
, % of the Moon is Illuminated

Gli estremi di oggi

State Highs State Lows

Community

WunderPhotos

Upload Photos

1,955,587 foto caricate!

WunderBlog® & News

Nearby

Qualità dell'aria

  Qualità dell'aria Indice AQ Inquinante
Not available.

Profondità neve

Stazione Profondità Altitudine

Attività sismica

Città  Distanza Mag. Data & Ora
Minimo Magnitudo Mostrato è 2.5.

Temperature delle acque costiere

Località Temperatura

Stations

Stazioni meteo nelle vicinanze

Ubicazione della stazione Temp. Raffreddamento del vento Punto di rugiada Umidità Vento Precip. Alt. Aggiornato Tipo
                   

Watches & Warnings

There are currently no watches in effect.